createdAt,value
2023-02-03T00:05:03.225Z,101044.47
2023-02-03T00:10:07.259Z,101035.06
2023-02-03T00:15:10.857Z,101021.41
2023-02-03T00:20:14.979Z,101014.72
2023-02-03T00:25:18.414Z,101043.38
2023-02-03T00:30:21.215Z,101030.72
2023-02-03T00:35:27.280Z,101033.50
2023-02-03T00:40:30.373Z,101032.44
2023-02-03T00:45:33.270Z,101027.56
2023-02-03T00:50:37.555Z,101022.28
2023-02-03T00:55:40.470Z,101038.81
2023-02-03T01:00:43.270Z,101035.75
2023-02-03T01:05:47.423Z,101032.75
2023-02-03T01:10:50.385Z,101050.78
2023-02-03T01:15:53.155Z,101051.16
2023-02-03T01:20:57.273Z,101032.34
2023-02-03T01:26:05.462Z,101040.56
2023-02-03T01:31:13.173Z,101043.53
2023-02-03T01:36:18.566Z,101047.59
2023-02-03T01:41:23.111Z,101063.13
2023-02-03T01:46:31.415Z,101051.78
2023-02-03T01:51:36.555Z,101037.78
2023-02-03T01:56:43.449Z,101016.44
2023-02-03T02:01:47.345Z,101027.47
2023-02-03T02:06:52.096Z,101020.69
2023-02-03T02:11:54.854Z,101007.47
2023-02-03T02:17:04.324Z,100981.94
2023-02-03T02:22:14.254Z,100966.28
2023-02-03T02:27:41.584Z,100983.41
2023-02-03T02:33:03.414Z,100958.25
2023-02-03T02:38:14.310Z,100932.75
2023-02-03T02:43:22.358Z,100956.31
2023-02-03T02:48:34.115Z,100945.38
2023-02-03T02:53:41.275Z,100986.69
2023-02-03T02:58:49.460Z,100996.00
2023-02-03T03:03:53.754Z,100981.94
2023-02-03T03:09:00.683Z,100987.63
2023-02-03T03:14:07.614Z,100982.06
2023-02-03T03:19:17.276Z,100970.63
2023-02-03T03:24:24.711Z,100944.72
2023-02-03T03:29:32.061Z,100947.41
2023-02-03T03:34:36.698Z,100946.03
2023-02-03T03:39:48.243Z,100948.66
2023-02-03T03:44:55.218Z,100939.03
2023-02-03T03:50:01.736Z,100939.50
2023-02-03T03:55:09.594Z,100933.53
2023-02-03T04:00:16.082Z,100915.81
2023-02-03T04:05:20.945Z,100930.88
2023-02-03T04:10:29.972Z,100914.97
2023-02-03T04:15:34.073Z,100912.97
2023-02-03T04:20:38.199Z,100920.13
2023-02-03T04:25:41.201Z,100906.34
2023-02-03T04:30:43.998Z,100902.81
2023-02-03T04:35:48.161Z,100896.78
2023-02-03T04:40:51.337Z,100902.66
2023-02-03T04:45:54.200Z,100900.47
2023-02-03T04:51:02.271Z,100887.41
2023-02-03T04:56:05.773Z,100879.03
2023-02-03T05:01:10.218Z,100858.91
2023-02-03T05:06:14.380Z,100861.75
2023-02-03T05:11:17.137Z,100875.34
2023-02-03T05:16:19.985Z,100868.31
2023-02-03T05:21:24.125Z,100865.28
2023-02-03T05:26:27.329Z,100867.75
2023-02-03T05:31:30.159Z,100850.03
2023-02-03T05:36:34.334Z,100854.75
2023-02-03T05:41:57.368Z,100849.78
2023-02-03T05:47:01.198Z,100854.94
2023-02-03T05:52:05.513Z,100863.69
2023-02-03T05:57:08.314Z,100844.34
2023-02-03T06:02:11.041Z,100847.06
2023-02-03T06:07:15.185Z,100848.41
2023-02-03T06:12:17.922Z,100850.78
2023-02-03T06:17:20.722Z,100855.94
2023-02-03T06:22:25.407Z,100835.66
2023-02-03T06:27:28.363Z,100842.00
2023-02-03T06:32:31.375Z,100857.56
2023-02-03T06:37:37.519Z,100861.88
2023-02-03T06:42:40.461Z,100858.81
2023-02-03T06:47:43.752Z,100860.06
2023-02-03T06:52:50.173Z,100867.38
2023-02-03T06:57:52.932Z,100860.16
2023-02-03T07:02:56.374Z,100850.59
2023-02-03T07:08:00.572Z,100856.81
2023-02-03T07:13:04.639Z,100863.28
2023-02-03T07:18:07.455Z,100867.28
2023-02-03T07:23:11.603Z,100854.06
2023-02-03T07:28:14.587Z,100848.72
2023-02-03T07:33:17.429Z,100835.59
2023-02-03T07:38:22.503Z,100857.69
2023-02-03T07:43:25.650Z,100835.19
2023-02-03T07:48:28.517Z,100823.84
2023-02-03T07:53:33.264Z,100826.00
2023-02-03T07:58:36.070Z,100841.94
2023-02-03T08:03:39.159Z,100831.19
2023-02-03T08:08:43.885Z,100858.16
2023-02-03T08:13:46.919Z,100849.75
2023-02-03T08:18:49.765Z,100868.03
2023-02-03T08:23:53.981Z,100847.00
2023-02-03T08:28:56.740Z,100849.16
2023-02-03T08:33:59.692Z,100824.31
2023-02-03T08:39:03.903Z,100835.25
2023-02-03T08:44:06.712Z,100810.41
2023-02-03T08:49:09.584Z,100817.34
2023-02-03T08:54:14.010Z,100826.16
2023-02-03T08:59:17.646Z,100822.22
2023-02-03T09:04:24.616Z,100807.06
2023-02-03T09:09:29.083Z,100825.53
2023-02-03T09:14:33.063Z,100824.13
2023-02-03T09:19:36.720Z,100833.06
2023-02-03T09:24:41.314Z,100820.16
2023-02-03T09:29:44.114Z,100829.13
2023-02-03T09:34:46.899Z,100816.72
2023-02-03T09:39:51.036Z,100801.59
2023-02-03T09:45:06.812Z,100799.75
2023-02-03T09:50:15.828Z,100820.88
2023-02-03T09:55:30.124Z,100819.28
2023-02-03T10:00:37.106Z,100833.34
2023-02-03T10:05:55.911Z,100842.28
2023-02-03T10:11:13.175Z,100834.44
2023-02-03T10:16:39.306Z,100868.16
2023-02-03T10:21:47.159Z,100849.84
2023-02-03T10:26:52.051Z,100874.41
2023-02-03T10:31:58.608Z,100859.34
2023-02-03T10:37:09.793Z,100881.88
2023-02-03T10:42:14.908Z,100887.47
2023-02-03T10:47:30.412Z,100910.81
2023-02-03T10:52:34.944Z,100893.69
2023-02-03T10:57:40.229Z,100880.34
2023-02-03T11:02:43.477Z,100898.69
2023-02-03T11:07:46.599Z,100914.09
2023-02-03T11:12:51.818Z,100904.34
2023-02-03T11:17:54.701Z,100915.31
2023-02-03T11:22:57.723Z,100924.59
2023-02-03T11:28:06.875Z,100910.38
2023-02-03T11:33:18.716Z,100924.69
2023-02-03T11:38:31.505Z,100915.31
2023-02-03T11:43:35.678Z,100917.09
2023-02-03T11:48:40.649Z,100924.44
2023-02-03T11:54:00.312Z,100932.16
2023-02-03T11:59:27.574Z,100935.72
2023-02-03T12:04:49.064Z,100924.44
2023-02-03T12:10:01.256Z,100920.91
2023-02-03T12:15:22.622Z,100941.41
2023-02-03T12:20:49.179Z,100964.94
2023-02-03T12:26:06.670Z,100978.50
2023-02-03T12:31:18.495Z,100978.59
2023-02-03T12:36:27.897Z,100986.16
2023-02-03T12:41:36.081Z,100982.41
2023-02-03T12:46:46.048Z,100985.84
2023-02-03T12:51:53.611Z,100989.19
2023-02-03T12:57:01.584Z,100974.69
2023-02-03T13:02:17.905Z,100970.28
2023-02-03T13:07:26.799Z,100982.38
2023-02-03T13:12:31.980Z,100978.38
2023-02-03T13:17:44.841Z,100952.00
2023-02-03T13:22:47.731Z,100968.94
2023-02-03T13:27:57.988Z,100941.16
2023-02-03T13:33:28.107Z,100977.41
2023-02-03T13:38:56.247Z,100964.91
2023-02-03T13:44:00.528Z,100978.19
2023-02-03T13:49:07.482Z,100966.72
2023-02-03T13:54:21.312Z,100966.78
2023-02-03T13:59:41.040Z,100963.47
2023-02-03T14:04:56.260Z,100981.16
2023-02-03T14:10:23.389Z,100997.66
2023-02-03T14:15:32.637Z,101013.06
2023-02-03T14:21:00.717Z,101013.59
2023-02-03T14:26:03.934Z,101026.91
2023-02-03T14:31:16.026Z,101050.34
2023-02-03T14:36:42.321Z,101047.84
2023-02-03T14:41:54.436Z,101075.56
2023-02-03T14:47:11.981Z,101067.84
2023-02-03T14:52:42.693Z,101078.72
2023-02-03T14:57:49.603Z,101089.19
2023-02-03T15:03:22.892Z,101120.25
2023-02-03T15:08:36.719Z,101116.31
2023-02-03T15:13:39.643Z,101121.53
2023-02-03T15:18:42.872Z,101109.78
2023-02-03T15:23:50.955Z,101118.97
2023-02-03T15:28:58.427Z,101131.97
2023-02-03T15:34:06.774Z,101131.34
2023-02-03T15:39:22.497Z,101146.25
2023-02-03T15:44:30.826Z,101152.66
2023-02-03T15:49:39.026Z,101144.91
2023-02-03T15:54:53.374Z,101150.72
2023-02-03T15:59:59.506Z,101154.75
2023-02-03T16:05:06.078Z,101173.47
2023-02-03T16:15:38.577Z,101195.59
2023-02-03T16:20:50.421Z,101204.78
2023-02-03T16:26:06.603Z,101207.13
2023-02-03T16:31:34.026Z,101212.34
2023-02-03T16:36:59.327Z,101202.97
2023-02-03T16:42:32.284Z,101205.66
2023-02-03T16:47:57.380Z,101222.59
2023-02-03T16:53:00.178Z,101223.66
2023-02-03T16:58:02.953Z,101211.66
2023-02-03T17:03:07.128Z,101218.88
2023-02-03T17:08:10.140Z,101215.53
2023-02-03T17:13:13.308Z,101223.00
2023-02-03T17:18:17.848Z,101232.47
2023-02-03T17:23:20.707Z,101249.47
2023-02-03T17:28:23.514Z,101255.78
2023-02-03T17:33:28.268Z,101260.78
2023-02-03T17:38:31.128Z,101276.97
2023-02-03T17:54:18.608Z,101287.72
2023-02-03T17:59:21.410Z,101297.97
2023-02-03T18:04:26.102Z,101291.03
2023-02-03T18:09:28.858Z,101304.38
2023-02-03T18:14:31.623Z,101313.34
2023-02-03T18:19:35.826Z,101323.84
2023-02-03T18:24:39.751Z,101346.41
2023-02-03T18:29:44.718Z,101340.38
2023-02-03T18:34:48.956Z,101354.38
2023-02-03T18:39:51.763Z,101349.94
2023-02-03T18:44:54.671Z,101360.50
2023-02-03T18:49:58.833Z,101349.06
2023-02-03T18:55:01.579Z,101372.66
2023-02-03T19:00:05.198Z,101388.97
2023-02-03T19:05:11.610Z,101407.50
2023-02-03T19:10:14.392Z,101415.16
2023-02-03T19:15:18.603Z,101423.31
2023-02-03T19:20:22.847Z,101429.84
2023-02-03T19:25:26.389Z,101431.97
2023-02-03T19:30:29.419Z,101436.59
2023-02-03T19:35:33.812Z,101438.59
2023-02-03T19:40:36.607Z,101453.56
2023-02-03T19:45:39.405Z,101456.53
2023-02-03T19:50:46.313Z,101444.19
2023-02-03T19:55:49.284Z,101443.94
2023-02-03T20:00:52.146Z,101457.44
2023-02-03T20:05:56.325Z,101465.38
2023-02-03T20:10:59.177Z,101482.16
2023-02-03T20:16:02.355Z,101455.22
2023-02-03T20:21:06.914Z,101470.63
2023-02-03T20:26:10.166Z,101471.91
2023-02-03T20:31:14.439Z,101474.44
2023-02-03T20:36:18.714Z,101497.78
2023-02-03T20:41:21.510Z,101510.69
2023-02-03T20:46:24.363Z,101498.13
2023-02-03T20:51:29.249Z,101513.97
2023-02-03T20:56:32.063Z,101518.31
2023-02-03T21:01:34.866Z,101534.06
2023-02-03T21:06:39.498Z,101524.97
2023-02-03T21:11:42.919Z,101548.03
2023-02-03T21:16:47.595Z,101556.78
2023-02-03T21:21:52.845Z,101544.63
2023-02-03T21:26:56.642Z,101560.84
2023-02-03T21:32:00.291Z,101559.16
2023-02-03T21:37:21.980Z,101557.81
2023-02-03T21:42:43.533Z,101551.03
2023-02-03T21:47:48.132Z,101563.63
2023-02-03T21:52:52.358Z,101567.84
2023-02-03T21:57:55.474Z,101570.06
2023-02-03T22:03:00.628Z,101590.47
2023-02-03T22:08:14.570Z,101588.16
2023-02-03T22:13:17.387Z,101600.00
2023-02-03T22:18:20.150Z,101598.81
2023-02-03T22:23:24.371Z,101604.91
2023-02-03T22:28:27.547Z,101605.69
2023-02-03T22:33:30.318Z,101611.03
2023-02-03T22:38:35.333Z,101609.41
2023-02-03T22:43:38.082Z,101605.97
2023-02-03T22:48:40.869Z,101625.25
2023-02-03T22:53:45.019Z,101637.84
2023-02-03T22:58:48.027Z,101649.38
2023-02-03T23:03:50.905Z,101644.72
2023-02-03T23:08:55.517Z,101649.25
2023-02-03T23:13:58.293Z,101652.13
2023-02-03T23:19:01.107Z,101675.97
2023-02-03T23:24:05.700Z,101685.63
2023-02-03T23:29:08.478Z,101691.28
2023-02-03T23:34:28.625Z,101703.22
2023-02-03T23:39:32.759Z,101700.13
2023-02-03T23:44:35.676Z,101713.84
2023-02-03T23:49:38.562Z,101725.66
2023-02-03T23:54:42.664Z,101739.44
2023-02-03T23:59:45.422Z,101737.19
